Time;durP1;ratioP1;P1;durP2;ratioP2;P2;SDS_P1;SDS_P2;PMS_P1;PMS_P2;Temp;Humidity;BMP_temperature;BMP_pressure;BME280_temperature;BME280_humidity;BME280_pressure;Samples;Min_cycle;Max_cycle;Signal;HPM_P1;HPM_P2
2024/01/20 00:02:09;;;;;;;9.60;5.90;;;8.60;76.10;;;;;;4996614;28;20041;-71
2024/01/20 00:04:34;;;;;;;7.22;5.10;;;8.60;76.10;;;;;;4996426;28;20049;-71
2024/01/20 00:07:00;;;;;;;6.13;5.05;;;8.60;76.10;;;;;;5029558;28;20045;-71
2024/01/20 00:09:26;;;;;;;7.85;6.95;;;8.60;76.10;;;;;;5011153;28;20099;-71
2024/01/20 00:11:51;;;;;;;7.90;5.95;;;8.60;76.10;;;;;;4988055;28;1095470;-70
2024/01/20 00:14:17;;;;;;;7.30;5.47;;;8.60;76.10;;;;;;5006155;28;20046;-70
2024/01/20 00:16:44;;;;;;;8.82;6.05;;;8.60;76.10;;;;;;4994776;28;20125;-71
2024/01/20 00:19:10;;;;;;;6.72;5.43;;;8.60;76.10;;;;;;4993683;28;20069;-71
2024/01/20 00:21:36;;;;;;;8.63;6.00;;;8.60;76.10;;;;;;5027183;28;20441;-71
2024/01/20 00:24:01;;;;;;;9.57;5.80;;;8.60;76.10;;;;;;5011002;28;20045;-71
2024/01/20 00:26:27;;;;;;;7.53;5.05;;;8.60;76.10;;;;;;5027506;28;20037;-71
2024/01/20 00:28:52;;;;;;;7.18;5.10;;;8.60;76.20;;;;;;4996215;28;20114;-71
2024/01/20 00:31:18;;;;;;;7.72;6.13;;;8.60;76.20;;;;;;4980507;28;20120;-71
2024/01/20 00:33:44;;;;;;;7.18;5.47;;;8.60;76.20;;;;;;4997446;28;20038;-71
2024/01/20 00:36:10;;;;;;;6.55;5.70;;;8.60;76.20;;;;;;4996701;28;20040;-71
2024/01/20 00:38:38;;;;;;;6.63;5.43;;;8.60;76.10;;;;;;5018710;28;20483;-71
2024/01/20 00:41:05;;;;;;;9.18;5.30;;;8.60;76.10;;;;;;5013535;28;20045;-71
2024/01/20 00:43:32;;;;;;;6.05;5.18;;;8.60;76.10;;;;;;5011579;28;20033;-71
2024/01/20 00:45:58;;;;;;;7.05;5.97;;;8.60;76.10;;;;;;4998188;28;20049;-71
2024/01/20 00:48:23;;;;;;;6.47;5.88;;;8.60;76.10;;;;;;5029402;28;20045;-71
2024/01/20 00:50:50;;;;;;;8.52;6.30;;;8.60;76.10;;;;;;5009766;28;20121;-71
2024/01/20 00:53:15;;;;;;;6.45;5.82;;;8.60;76.10;;;;;;5012440;28;20440;-71
2024/01/20 00:55:41;;;;;;;7.53;5.43;;;8.60;76.10;;;;;;5013433;28;20045;-71
2024/01/20 00:58:07;;;;;;;8.73;6.22;;;8.60;76.10;;;;;;5013967;28;20037;-71
2024/01/20 01:00:32;;;;;;;7.78;6.30;;;8.60;76.10;;;;;;5013034;28;20108;-71
2024/01/20 01:02:58;;;;;;;8.65;6.40;;;8.60;76.20;;;;;;5011253;28;20091;-71
2024/01/20 01:05:23;;;;;;;8.38;5.85;;;8.60;76.20;;;;;;5008879;28;20149;-71
2024/01/20 01:07:49;;;;;;;7.68;5.45;;;8.60;76.20;;;;;;5012365;28;20042;-71
2024/01/20 01:10:15;;;;;;;6.35;5.75;;;8.60;76.20;;;;;;5028985;28;20087;-71
2024/01/20 01:12:41;;;;;;;7.10;6.43;;;8.60;76.10;;;;;;4995967;28;20060;-71
2024/01/20 01:15:06;;;;;;;7.65;6.65;;;8.60;76.20;;;;;;5011808;28;20033;-71
2024/01/20 01:17:32;;;;;;;8.63;7.60;;;8.60;76.20;;;;;;5036531;28;20159;-71
2024/01/20 01:19:58;;;;;;;9.23;6.55;;;8.60;76.20;;;;;;5011262;28;20045;-71
2024/01/20 01:22:24;;;;;;;9.63;7.10;;;8.60;76.10;;;;;;5029478;28;20064;-71
2024/01/20 01:24:49;;;;;;;8.63;6.68;;;8.60;76.20;;;;;;5008848;28;20434;-71
2024/01/20 01:27:16;;;;;;;8.10;5.45;;;8.60;76.10;;;;;;5024663;28;20037;-71
2024/01/20 01:29:41;;;;;;;8.52;7.68;;;8.60;76.10;;;;;;5006021;28;20045;-71
2024/01/20 01:32:07;;;;;;;9.73;6.95;;;8.50;76.10;;;;;;5029166;28;20116;-71
2024/01/20 01:34:32;;;;;;;8.63;7.70;;;8.60;76.20;;;;;;4995707;28;20041;-71
2024/01/20 01:36:58;;;;;;;9.25;6.63;;;8.60;76.10;;;;;;5028126;28;21903;-71
2024/01/20 01:39:24;;;;;;;7.93;6.63;;;8.50;76.00;;;;;;5008439;28;20038;-71
2024/01/20 01:41:49;;;;;;;7.55;6.57;;;8.60;76.20;;;;;;4979190;28;20041;-70
2024/01/20 01:44:15;;;;;;;8.27;7.47;;;8.50;76.00;;;;;;4995946;28;20482;-70
2024/01/20 01:46:40;;;;;;;10.85;6.78;;;8.50;76.10;;;;;;4993288;28;20095;-71
2024/01/20 01:49:06;;;;;;;9.85;7.75;;;8.60;76.10;;;;;;4980483;28;20031;-71
2024/01/20 01:51:32;;;;;;;9.55;7.80;;;8.50;76.10;;;;;;4996883;28;20048;-71
2024/01/20 01:54:01;;;;;;;8.68;7.82;;;8.50;76.10;;;;;;4994767;28;20048;-71
2024/01/20 01:56:27;;;;;;;8.77;7.60;;;8.50;76.00;;;;;;5011812;28;20029;-71
2024/01/20 01:58:53;;;;;;;10.40;8.18;;;8.60;76.10;;;;;;5029247;28;20663;-71
2024/01/20 02:01:19;;;;;;;8.63;7.25;;;8.50;76.00;;;;;;4993525;28;20041;-71
2024/01/20 02:03:45;;;;;;;8.15;6.78;;;8.50;76.10;;;;;;5029963;28;20379;-71
2024/01/20 02:06:10;;;;;;;9.82;7.70;;;8.60;76.10;;;;;;5008561;28;20508;-71
2024/01/20 02:08:36;;;;;;;8.50;7.18;;;8.60;76.10;;;;;;4978040;28;20150;-71
2024/01/20 02:11:02;;;;;;;9.20;7.45;;;8.50;76.10;;;;;;5011233;28;20034;-71
2024/01/20 02:13:27;;;;;;;9.70;7.78;;;8.50;76.10;;;;;;4994289;28;20586;-71
2024/01/20 02:15:53;;;;;;;11.73;7.85;;;8.50;76.10;;;;;;4978242;28;20045;-71
2024/01/20 02:18:22;;;;;;;10.00;8.50;;;8.50;76.10;;;;;;4994289;28;20397;-71
2024/01/20 02:20:48;;;;;;;10.30;7.82;;;8.50;76.00;;;;;;5027192;28;20047;-71
2024/01/20 02:23:13;;;;;;;9.02;8.00;;;8.50;76.10;;;;;;4994344;28;20037;-71
2024/01/20 02:25:39;;;;;;;9.23;7.68;;;8.50;76.00;;;;;;5028848;28;20424;-71
2024/01/20 02:28:04;;;;;;;8.02;7.03;;;8.50;76.00;;;;;;4995560;28;20048;-71
2024/01/20 02:30:30;;;;;;;9.55;8.63;;;8.50;76.00;;;;;;5008637;28;20034;-71
2024/01/20 02:32:56;;;;;;;12.23;8.50;;;8.50;76.10;;;;;;5012505;28;20071;-71
2024/01/20 02:35:21;;;;;;;9.63;8.20;;;8.50;76.00;;;;;;5008858;28;20078;-71
2024/01/20 02:37:47;;;;;;;11.75;7.53;;;8.50;76.00;;;;;;5024959;28;20123;-71
2024/01/20 02:40:13;;;;;;;11.32;9.55;;;8.50;76.00;;;;;;5008089;28;20508;-71
2024/01/20 02:42:38;;;;;;;9.95;8.95;;;8.50;76.00;;;;;;5011793;28;20045;-71
2024/01/20 02:45:04;;;;;;;10.20;8.38;;;8.50;76.00;;;;;;5029299;28;20041;-71
2024/01/20 02:47:30;;;;;;;9.35;8.10;;;8.50;76.00;;;;;;5028021;28;20128;-71
2024/01/20 02:49:56;;;;;;;10.73;8.45;;;8.50;76.00;;;;;;4995218;28;20474;-71
2024/01/20 02:52:21;;;;;;;11.18;9.85;;;8.50;76.00;;;;;;4999169;28;20049;-71
2024/01/20 02:54:47;;;;;;;10.52;9.05;;;8.50;76.00;;;;;;5015529;28;20120;-71
2024/01/20 02:57:12;;;;;;;11.50;8.38;;;8.50;76.00;;;;;;5013494;28;20131;-71
2024/01/20 02:59:38;;;;;;;10.30;8.00;;;8.50;76.00;;;;;;4998842;28;20044;-71
2024/01/20 03:02:04;;;;;;;8.75;7.90;;;8.50;76.00;;;;;;5013803;28;20073;-71
2024/01/20 03:04:29;;;;;;;12.40;8.82;;;8.50;76.00;;;;;;5016275;28;20068;-71
2024/01/20 03:06:55;;;;;;;12.00;8.73;;;8.50;76.00;;;;;;5015833;28;20492;-71
2024/01/20 03:09:20;;;;;;;10.43;8.95;;;8.50;76.00;;;;;;5013232;28;20425;-71
2024/01/20 03:11:46;;;;;;;13.52;7.80;;;8.60;76.00;;;;;;5031324;28;20100;-71
2024/01/20 03:14:12;;;;;;;11.20;8.90;;;8.50;75.90;;;;;;4996823;28;20049;-71
2024/01/20 03:16:38;;;;;;;10.40;8.40;;;8.50;76.00;;;;;;5032273;28;20048;-71
2024/01/20 03:19:04;;;;;;;10.57;9.27;;;8.50;75.90;;;;;;5012222;28;20128;-71
2024/01/20 03:21:30;;;;;;;10.23;9.10;;;8.50;76.00;;;;;;5013110;28;20034;-71
2024/01/20 03:23:55;;;;;;;13.60;10.43;;;8.50;76.00;;;;;;4996497;28;20045;-71
2024/01/20 03:26:21;;;;;;;11.90;9.48;;;8.50;75.90;;;;;;4997932;28;20204;-71
2024/01/20 03:28:47;;;;;;;12.57;9.45;;;8.50;75.90;;;;;;4998167;28;20417;-71
2024/01/20 03:31:12;;;;;;;13.13;9.45;;;8.50;75.90;;;;;;5013510;28;20025;-71
2024/01/20 03:33:38;;;;;;;15.07;11.25;;;8.50;75.90;;;;;;4996803;28;20034;-71
2024/01/20 03:36:04;;;;;;;13.07;10.15;;;8.50;75.90;;;;;;4997198;28;20037;-71
2024/01/20 03:38:29;;;;;;;12.43;11.13;;;8.50;75.90;;;;;;5015389;28;20042;-71
2024/01/20 03:40:55;;;;;;;11.38;9.93;;;8.50;75.80;;;;;;4997988;28;20052;-71
2024/01/20 03:43:21;;;;;;;11.90;10.80;;;8.50;75.90;;;;;;4997566;28;20041;-71
2024/01/20 03:45:46;;;;;;;13.25;10.75;;;8.50;75.80;;;;;;5014585;28;20409;-71
2024/01/20 03:48:12;;;;;;;12.48;10.50;;;8.50;75.80;;;;;;5014631;28;20033;-71
2024/01/20 03:50:38;;;;;;;13.60;12.18;;;8.50;75.80;;;;;;4999329;28;20307;-71
2024/01/20 03:53:04;;;;;;;11.65;9.65;;;8.50;75.80;;;;;;5012743;28;20029;-71
2024/01/20 03:55:29;;;;;;;12.30;10.50;;;8.50;75.70;;;;;;5014310;28;20405;-71
2024/01/20 03:57:55;;;;;;;10.90;9.77;;;8.50;75.80;;;;;;4997332;28;20080;-70
2024/01/20 04:00:21;;;;;;;13.52;10.40;;;8.50;75.80;;;;;;4981314;28;20103;-70
2024/01/20 04:02:46;;;;;;;13.13;11.27;;;8.50;75.80;;;;;;5028774;28;20045;-70
2024/01/20 04:05:12;;;;;;;16.23;11.48;;;8.50;75.80;;;;;;5009833;28;20281;-71
2024/01/20 04:07:38;;;;;;;11.70;9.75;;;8.50;75.70;;;;;;5004336;28;20052;-71
2024/01/20 04:10:04;;;;;;;13.48;10.30;;;8.50;75.80;;;;;;5013456;28;20038;-71
2024/01/20 04:12:29;;;;;;;13.27;10.55;;;8.50;75.70;;;;;;5013791;28;20493;-71
2024/01/20 04:14:58;;;;;;;13.07;10.57;;;8.50;75.70;;;;;;5013987;28;20037;-71
2024/01/20 04:17:23;;;;;;;13.60;10.35;;;8.50;75.70;;;;;;4999126;28;20496;-71
2024/01/20 04:19:49;;;;;;;14.18;10.18;;;8.40;75.60;;;;;;4997427;28;20088;-71
2024/01/20 04:22:14;;;;;;;13.75;12.35;;;8.50;75.70;;;;;;5047883;28;20404;-71
2024/01/20 04:24:40;;;;;;;14.45;10.70;;;8.50;75.70;;;;;;5012209;28;20045;-71
2024/01/20 04:27:06;;;;;;;14.82;11.85;;;8.50;76.40;;;;;;4998126;28;20111;-71
2024/01/20 04:29:31;;;;;;;13.20;10.57;;;8.50;75.70;;;;;;5013839;28;20124;-71
2024/01/20 04:31:57;;;;;;;14.00;10.35;;;8.50;75.70;;;;;;4996375;28;20041;-71
2024/01/20 04:34:23;;;;;;;15.00;13.00;;;8.50;75.70;;;;;;5039952;28;20044;-71
2024/01/20 04:36:48;;;;;;;15.40;13.65;;;8.40;75.60;;;;;;5012962;28;20116;-71
2024/01/20 04:39:14;;;;;;;15.95;12.70;;;8.40;75.60;;;;;;4997401;28;20036;-71
2024/01/20 04:41:40;;;;;;;15.48;12.98;;;8.50;75.70;;;;;;4995895;28;20121;-71
2024/01/20 04:44:05;;;;;;;17.30;12.02;;;8.40;75.60;;;;;;5012541;28;20095;-71
2024/01/20 04:46:31;;;;;;;16.20;13.85;;;8.40;75.60;;;;;;5030583;28;20045;-71
2024/01/20 04:48:57;;;;;;;17.38;13.40;;;8.40;75.60;;;;;;4997298;28;20035;-71
2024/01/20 04:51:23;;;;;;;15.82;13.27;;;8.50;75.60;;;;;;4997313;28;20539;-71
2024/01/20 04:53:48;;;;;;;15.57;12.73;;;8.50;75.60;;;;;;4996709;28;20038;-71
2024/01/20 04:56:24;;;;;;;15.85;13.27;;;8.40;75.60;;;;;;5012464;28;20397;-71
2024/01/20 04:58:51;;;;;;;17.45;13.57;;;8.40;75.60;;;;;;4999641;28;20044;-71
2024/01/20 05:01:16;;;;;;;17.25;11.93;;;8.40;75.60;;;;;;5009961;28;20521;-71
2024/01/20 05:03:42;;;;;;;19.63;14.23;;;8.40;75.60;;;;;;4995203;28;20073;-71
2024/01/20 05:06:08;;;;;;;15.75;14.00;;;8.50;75.60;;;;;;4997617;28;20405;-71
2024/01/20 05:08:33;;;;;;;17.35;12.85;;;8.40;75.50;;;;;;5046468;28;20045;-71
2024/01/20 05:10:59;;;;;;;18.75;13.25;;;8.40;75.50;;;;;;5013979;28;20044;-71
2024/01/20 05:13:25;;;;;;;17.55;14.63;;;8.40;76.20;;;;;;5012754;28;20045;-71
2024/01/20 05:15:53;;;;;;;28.05;15.13;;;8.40;75.40;;;;;;5013163;28;20513;-71
2024/01/20 05:18:19;;;;;;;17.75;14.27;;;8.40;75.50;;;;;;5013726;28;20052;-71
2024/01/20 05:20:44;;;;;;;17.35;14.52;;;8.40;75.40;;;;;;5013183;28;20397;-71
2024/01/20 05:23:10;;;;;;;16.98;12.65;;;8.40;75.40;;;;;;5013469;28;20088;-71
2024/01/20 05:25:36;;;;;;;17.48;14.77;;;8.40;75.40;;;;;;5011847;28;20045;-71
2024/01/20 05:28:01;;;;;;;20.15;14.63;;;8.40;75.50;;;;;;5011655;28;20049;-71
2024/01/20 05:30:27;;;;;;;21.05;15.52;;;8.40;75.40;;;;;;5013202;28;20050;-71
2024/01/20 05:32:52;;;;;;;20.67;14.60;;;8.40;75.40;;;;;;4996303;28;20146;-71
2024/01/20 05:35:18;;;;;;;20.95;16.67;;;8.40;75.40;;;;;;5028158;28;20069;-71
2024/01/20 05:37:44;;;;;;;18.77;13.85;;;8.40;75.50;;;;;;5012563;28;20057;-71
2024/01/20 05:40:10;;;;;;;23.63;16.63;;;8.40;75.40;;;;;;5029898;28;20116;-71
2024/01/20 05:42:36;;;;;;;21.35;14.80;;;8.40;75.40;;;;;;4994825;28;20041;-71
2024/01/20 05:45:02;;;;;;;20.15;16.45;;;8.40;75.40;;;;;;4996611;28;20096;-71
2024/01/20 05:47:27;;;;;;;19.45;14.55;;;8.40;75.40;;;;;;5028891;28;20046;-71
2024/01/20 05:49:53;;;;;;;19.25;13.88;;;8.40;75.40;;;;;;4980399;28;20033;-71
2024/01/20 05:52:19;;;;;;;22.27;16.10;;;8.40;75.30;;;;;;4995888;28;20437;-71
2024/01/20 05:54:44;;;;;;;20.65;17.63;;;8.40;75.30;;;;;;5012788;28;20087;-71
2024/01/20 05:57:10;;;;;;;21.27;15.73;;;8.40;75.40;;;;;;4994718;28;20041;-71
2024/01/20 05:59:36;;;;;;;20.45;13.93;;;8.40;75.40;;;;;;4996935;28;20401;-72
2024/01/20 06:02:01;;;;;;;21.95;14.90;;;8.40;75.30;;;;;;4995604;28;20071;-71
2024/01/20 06:04:27;;;;;;;20.65;14.20;;;8.40;75.40;;;;;;4996099;28;20128;-71
2024/01/20 06:06:52;;;;;;;19.50;15.07;;;8.30;75.30;;;;;;5009615;28;20430;-72
2024/01/20 06:09:18;;;;;;;20.38;13.82;;;8.40;75.30;;;;;;4995419;28;20502;-72
2024/01/20 06:11:44;;;;;;;20.83;14.80;;;8.30;75.30;;;;;;5011662;28;20096;-72
2024/01/20 06:14:09;;;;;;;20.80;15.73;;;8.40;75.40;;;;;;4995212;28;20045;-72
2024/01/20 06:16:38;;;;;;;21.05;16.85;;;8.30;75.30;;;;;;5012051;28;20045;-72
2024/01/20 06:19:04;;;;;;;22.80;18.17;;;8.40;75.30;;;;;;5025296;28;20401;-72
2024/01/20 06:21:30;;;;;;;22.75;16.17;;;8.30;75.30;;;;;;5013205;28;20041;-72
2024/01/20 06:23:56;;;;;;;21.52;16.05;;;8.40;75.30;;;;;;4995915;28;20508;-72
2024/01/20 06:26:21;;;;;;;20.33;17.02;;;8.40;75.30;;;;;;5029971;28;20045;-72
2024/01/20 06:28:47;;;;;;;22.27;18.83;;;8.30;75.20;;;;;;5046866;28;20037;-72
2024/01/20 06:31:25;;;;;;;20.23;14.88;;;8.40;75.30;;;;;;5009227;28;20041;-72
2024/01/20 06:33:52;;;;;;;20.85;14.45;;;8.40;75.20;;;;;;5015209;28;20115;-72
2024/01/20 06:36:18;;;;;;;20.02;14.73;;;8.30;75.20;;;;;;5007638;28;20084;-72
2024/01/20 06:38:44;;;;;;;18.00;15.18;;;8.30;75.20;;;;;;5016707;28;20049;-72
2024/01/20 06:41:09;;;;;;;23.00;17.17;;;8.30;75.20;;;;;;4998543;28;20112;-72
2024/01/20 06:43:35;;;;;;;20.33;14.68;;;8.30;75.10;;;;;;5006221;28;20049;-72
2024/01/20 06:46:00;;;;;;;19.05;14.50;;;8.30;75.20;;;;;;5016035;28;20115;-72
2024/01/20 06:48:26;;;;;;;18.77;14.98;;;8.30;75.20;;;;;;5002558;28;20030;-72
2024/01/20 06:50:52;;;;;;;19.77;15.05;;;8.30;75.20;;;;;;5023987;28;20053;-72
2024/01/20 06:53:18;;;;;;;18.73;13.52;;;8.30;75.20;;;;;;5013361;28;20453;-71
2024/01/20 06:55:43;;;;;;;18.13;15.82;;;8.30;75.20;;;;;;5014095;28;20473;-72
2024/01/20 06:58:09;;;;;;;23.50;17.92;;;8.30;75.10;;;;;;5015019;28;20037;-71
2024/01/20 07:00:35;;;;;;;21.13;15.38;;;8.30;75.20;;;;;;4999544;28;20515;-71
2024/01/20 07:03:00;;;;;;;21.00;16.30;;;8.30;75.00;;;;;;5012639;28;20045;-71
2024/01/20 07:05:26;;;;;;;22.05;16.08;;;8.30;75.10;;;;;;5014631;28;20043;-71
2024/01/20 07:07:51;;;;;;;17.75;13.50;;;8.30;75.10;;;;;;4999174;28;20129;-71
2024/01/20 07:10:17;;;;;;;20.75;17.17;;;8.30;75.10;;;;;;5016411;28;20037;-71
2024/01/20 07:12:43;;;;;;;20.23;14.23;;;8.30;75.20;;;;;;5015685;28;20119;-71
2024/01/20 07:15:09;;;;;;;18.58;14.10;;;8.30;75.10;;;;;;5031810;28;20053;-71
2024/01/20 07:17:34;;;;;;;22.55;16.75;;;8.30;75.10;;;;;;5014318;28;20120;-71
2024/01/20 07:20:00;;;;;;;17.88;13.85;;;8.30;75.10;;;;;;5012010;28;20340;-71
2024/01/20 07:22:26;;;;;;;18.92;13.45;;;8.30;75.10;;;;;;4999551;28;20505;-71
2024/01/20 07:24:52;;;;;;;19.83;15.10;;;8.30;75.10;;;;;;4998190;28;20041;-71
2024/01/20 07:27:18;;;;;;;18.95;14.15;;;8.30;75.10;;;;;;5015301;28;20053;-71
2024/01/20 07:29:43;;;;;;;16.88;13.55;;;8.30;75.10;;;;;;5034649;28;20409;-71
2024/01/20 07:32:09;;;;;;;18.70;13.18;;;8.30;75.00;;;;;;5015186;28;20072;-71
2024/01/20 07:34:35;;;;;;;20.13;14.70;;;8.30;75.00;;;;;;5014190;28;20475;-71
2024/01/20 07:37:00;;;;;;;19.05;14.02;;;8.30;75.00;;;;;;5011484;28;20045;-71
2024/01/20 07:39:26;;;;;;;19.50;16.02;;;8.30;75.00;;;;;;5010600;28;20033;-71
2024/01/20 07:41:52;;;;;;;20.83;15.85;;;8.30;75.00;;;;;;5012570;28;20044;-71
2024/01/20 07:44:18;;;;;;;19.40;14.50;;;8.30;74.90;;;;;;5010050;28;20603;-71
2024/01/20 07:46:43;;;;;;;22.40;16.67;;;8.30;74.90;;;;;;4998956;28;20038;-71
2024/01/20 07:49:09;;;;;;;20.77;14.20;;;8.20;74.70;;;;;;4998755;28;20048;-71
2024/01/20 07:51:35;;;;;;;19.60;13.27;;;8.20;74.80;;;;;;5015379;28;20508;-73
2024/01/20 07:54:00;;;;;;;20.98;14.75;;;8.20;74.80;;;;;;5032192;28;20065;-71
2024/01/20 07:56:26;;;;;;;26.40;14.38;;;8.20;74.80;;;;;;5014044;28;20109;-71
2024/01/20 07:58:52;;;;;;;20.02;14.15;;;8.10;74.80;;;;;;5000246;28;20037;-71
2024/01/20 08:01:18;;;;;;;22.95;16.90;;;8.20;74.90;;;;;;5005252;28;20049;-69
2024/01/20 08:03:44;;;;;;;19.08;13.82;;;8.20;75.00;;;;;;5006357;28;20046;-72
2024/01/20 08:06:09;;;;;;;23.35;15.63;;;8.10;74.80;;;;;;5031106;28;20044;-72
2024/01/20 08:08:35;;;;;;;21.52;15.60;;;8.00;74.90;;;;;;5014614;28;20049;-72
2024/01/20 08:11:00;;;;;;;19.17;14.25;;;8.00;75.00;;;;;;5015245;28;20044;-72
2024/01/20 08:13:26;;;;;;;19.80;16.60;;;8.00;75.00;;;;;;4998647;28;20045;-72
2024/01/20 08:15:52;;;;;;;23.85;14.88;;;8.00;75.10;;;;;;5014934;28;20453;-73
2024/01/20 08:18:17;;;;;;;18.90;14.90;;;8.00;75.00;;;;;;5013992;28;20146;-72
2024/01/20 08:20:43;;;;;;;19.40;15.63;;;8.10;75.10;;;;;;4996564;28;20042;-72
2024/01/20 08:23:08;;;;;;;19.48;13.63;;;8.10;75.10;;;;;;4998287;28;20100;-72
2024/01/20 08:25:34;;;;;;;19.83;14.07;;;8.10;75.10;;;;;;5030167;28;20045;-71
2024/01/20 08:28:00;;;;;;;18.92;13.73;;;8.10;75.10;;;;;;4981274;28;20127;-73
2024/01/20 08:30:25;;;;;;;20.27;14.32;;;8.10;75.10;;;;;;4998141;28;20033;-72
2024/01/20 08:32:51;;;;;;;19.52;13.18;;;8.20;75.10;;;;;;4997883;28;20041;-72
2024/01/20 08:35:16;;;;;;;19.92;13.68;;;8.20;75.10;;;;;;5014047;28;20030;-72
2024/01/20 08:37:42;;;;;;;18.23;13.43;;;8.10;75.10;;;;;;4997541;28;20048;-73
2024/01/20 08:40:08;;;;;;;17.50;11.90;;;8.10;75.10;;;;;;5012375;28;20437;-73
2024/01/20 08:42:33;;;;;;;18.35;12.25;;;8.10;75.00;;;;;;4998050;28;20044;-72
2024/01/20 08:44:59;;;;;;;17.30;14.48;;;8.10;75.10;;;;;;4997028;28;20087;-73
2024/01/20 08:47:25;;;;;;;20.65;13.68;;;8.20;75.10;;;;;;5029656;28;20046;-73
2024/01/20 08:49:53;;;;;;;17.55;14.10;;;8.20;75.10;;;;;;5013436;28;20116;-72
2024/01/20 08:52:19;;;;;;;19.20;14.93;;;8.20;75.10;;;;;;5028330;28;20495;-73
2024/01/20 08:54:45;;;;;;;19.95;15.10;;;8.20;75.10;;;;;;4997839;28;20069;-72
2024/01/20 08:57:10;;;;;;;19.10;12.98;;;8.10;75.40;;;;;;5046090;28;20465;-73
2024/01/20 08:59:36;;;;;;;20.70;13.07;;;8.10;75.30;;;;;;5017359;28;20129;-73
2024/01/20 09:02:03;;;;;;;20.23;13.68;;;8.10;75.30;;;;;;4992925;28;20041;-73
2024/01/20 09:04:29;;;;;;;19.90;12.88;;;8.10;75.40;;;;;;5022892;28;20041;-73
2024/01/20 09:06:55;;;;;;;19.77;14.25;;;8.10;75.40;;;;;;4987836;28;20575;-73
2024/01/20 09:09:20;;;;;;;18.45;12.98;;;8.10;75.40;;;;;;5026339;28;20060;-73
2024/01/20 09:11:46;;;;;;;17.83;14.55;;;8.10;75.40;;;;;;5026214;28;20040;-73
2024/01/20 09:14:11;;;;;;;19.55;13.23;;;8.10;75.40;;;;;;5020566;28;20041;-73
2024/01/20 09:16:37;;;;;;;17.40;13.82;;;8.10;75.40;;;;;;5001552;28;20103;-73
2024/01/20 09:19:03;;;;;;;17.85;15.77;;;8.20;75.40;;;;;;5015463;28;20295;-72
2024/01/20 09:21:29;;;;;;;19.92;13.65;;;8.20;75.40;;;;;;5020031;28;20029;-73
2024/01/20 09:23:54;;;;;;;18.45;15.02;;;8.20;75.40;;;;;;5019380;28;20037;-73
2024/01/20 09:26:20;;;;;;;18.73;14.43;;;8.20;75.40;;;;;;4989775;28;20037;-73
2024/01/20 09:28:46;;;;;;;17.90;13.00;;;8.20;75.40;;;;;;5022814;28;20041;-73
2024/01/20 09:31:12;;;;;;;17.65;15.52;;;8.20;75.50;;;;;;5021123;28;20481;-73
2024/01/20 09:33:37;;;;;;;16.90;14.02;;;8.30;75.50;;;;;;5034859;28;20052;-71
2024/01/20 09:36:03;;;;;;;18.33;14.52;;;8.20;75.40;;;;;;5035753;28;20032;-71
2024/01/20 09:38:29;;;;;;;18.13;13.43;;;8.20;75.50;;;;;;5011152;28;20045;-71
2024/01/20 09:40:58;;;;;;;17.55;12.00;;;8.20;75.50;;;;;;5004681;28;20037;-71
2024/01/20 09:43:25;;;;;;;15.88;12.05;;;8.20;75.40;;;;;;5023095;28;20041;-72
2024/01/20 09:45:51;;;;;;;16.45;12.93;;;8.20;75.50;;;;;;4999271;28;20634;-72
2024/01/20 09:48:16;;;;;;;17.73;12.45;;;8.20;75.50;;;;;;5017744;28;20033;-71
2024/01/20 09:50:42;;;;;;;15.13;12.95;;;8.20;75.50;;;;;;5007428;28;20037;-71
2024/01/20 09:53:14;;;;;;;15.55;13.07;;;8.30;75.60;;;;;;5016657;28;20040;-71
2024/01/20 09:55:40;;;;;;;18.75;12.52;;;8.20;75.50;;;;;;5011941;28;20090;-71
2024/01/20 09:58:06;;;;;;;14.70;10.82;;;8.20;75.50;;;;;;5022342;28;20041;-71
2024/01/20 10:00:31;;;;;;;16.00;13.32;;;8.30;75.60;;;;;;5006883;28;20052;-70
2024/01/20 10:02:57;;;;;;;15.10;12.32;;;8.30;75.60;;;;;;5032238;28;20405;-70
2024/01/20 10:05:23;;;;;;;14.80;11.95;;;8.20;75.60;;;;;;5008704;28;20424;-69
2024/01/20 10:07:49;;;;;;;15.10;12.02;;;8.20;75.60;;;;;;5020718;28;20045;-69
2024/01/20 10:10:21;;;;;;;17.48;10.75;;;8.20;75.60;;;;;;5030419;28;20614;-69
2024/01/20 10:12:49;;;;;;;15.48;10.82;;;8.30;75.70;;;;;;5027284;28;20060;-69
2024/01/20 10:15:15;;;;;;;15.13;12.57;;;8.30;75.70;;;;;;5019295;28;20033;-69
2024/01/20 10:17:41;;;;;;;17.15;13.50;;;8.20;75.70;;;;;;4998573;28;20539;-69
2024/01/20 10:20:06;;;;;;;14.82;10.07;;;8.20;75.80;;;;;;5043771;28;20041;-69
2024/01/20 10:22:32;;;;;;;17.08;12.05;;;8.20;75.80;;;;;;5027286;28;20043;-69
2024/01/20 10:24:59;;;;;;;16.95;10.60;;;8.20;75.80;;;;;;5021663;28;20053;-69
2024/01/20 10:27:24;;;;;;;15.75;12.18;;;8.20;75.90;;;;;;5031052;28;20456;-69
2024/01/20 10:29:50;;;;;;;13.15;10.45;;;8.20;75.90;;;;;;5001871;28;20345;-69
2024/01/20 10:32:16;;;;;;;14.63;10.68;;;8.20;75.90;;;;;;4999760;28;20092;-69
2024/01/20 10:34:42;;;;;;;14.48;9.93;;;8.20;75.90;;;;;;4983271;28;20049;-69
2024/01/20 10:37:11;;;;;;;16.52;13.15;;;8.20;76.00;;;;;;5031814;28;20512;-69
2024/01/20 10:39:44;;;;;;;17.08;10.77;;;8.20;75.90;;;;;;5032109;28;20307;-69
2024/01/20 10:42:14;;;;;;;14.38;10.60;;;8.30;76.00;;;;;;5031806;28;20293;-69
2024/01/20 10:44:49;;;;;;;14.90;12.38;;;8.30;76.00;;;;;;4999367;28;20037;-69
2024/01/20 10:47:16;;;;;;;14.20;10.15;;;8.30;76.00;;;;;;5006835;28;20048;-69
2024/01/20 10:49:45;;;;;;;13.68;9.45;;;8.30;76.00;;;;;;5000496;28;20091;-70
2024/01/20 10:52:12;;;;;;;14.00;10.27;;;8.30;76.00;;;;;;4999938;28;20048;-69
2024/01/20 10:54:43;;;;;;;14.15;9.50;;;8.30;76.00;;;;;;4999778;28;20037;-69
2024/01/20 10:57:10;;;;;;;17.05;9.70;;;8.30;76.10;;;;;;5022272;28;20037;-69
2024/01/20 10:59:38;;;;;;;13.60;9.40;;;8.30;76.10;;;;;;5031528;28;20401;-69
2024/01/20 11:02:04;;;;;;;14.25;11.05;;;8.30;76.10;;;;;;5009888;28;20042;-70
2024/01/20 11:04:35;;;;;;;13.13;10.13;;;8.30;76.20;;;;;;5030760;28;20037;-69
2024/01/20 11:07:00;;;;;;;15.18;9.68;;;8.30;76.20;;;;;;4997942;28;20366;-69
2024/01/20 11:09:26;;;;;;;14.45;11.75;;;8.30;76.10;;;;;;5030309;28;20045;-69
2024/01/20 11:12:02;;;;;;;12.55;10.50;;;8.30;76.20;;;;;;5014485;28;20413;-69
2024/01/20 11:14:31;;;;;;;14.57;9.65;;;8.30;76.20;;;;;;4999116;28;20088;-69
2024/01/20 11:16:57;;;;;;;13.65;12.05;;;8.30;76.10;;;;;;5026006;28;20398;-69
2024/01/20 11:19:22;;;;;;;13.30;10.43;;;8.30;76.10;;;;;;5027314;28;20141;-69
2024/01/20 11:21:48;;;;;;;12.48;9.38;;;8.30;76.20;;;;;;5024034;28;20141;-69
2024/01/20 11:24:17;;;;;;;13.48;11.48;;;8.30;76.10;;;;;;5031786;28;20047;-69
2024/01/20 11:26:43;;;;;;;12.48;11.20;;;8.30;76.20;;;;;;5011960;28;20042;-69
2024/01/20 11:29:08;;;;;;;13.07;9.90;;;8.30;76.10;;;;;;5019022;28;20041;-69
2024/01/20 11:31:34;;;;;;;12.32;9.32;;;8.40;76.20;;;;;;4999137;28;20037;-69
2024/01/20 11:34:05;;;;;;;12.07;10.68;;;8.30;76.20;;;;;;5007398;28;20057;-69
2024/01/20 11:36:32;;;;;;;12.30;9.48;;;8.40;77.00;;;;;;5003520;28;20484;-68
2024/01/20 11:38:58;;;;;;;12.73;11.00;;;8.40;76.20;;;;;;5001822;28;20041;-68
2024/01/20 11:41:24;;;;;;;14.00;10.27;;;8.40;76.30;;;;;;4999415;28;20408;-68
2024/01/20 11:43:49;;;;;;;12.93;10.00;;;8.40;76.30;;;;;;5028382;28;20047;-68
2024/01/20 11:46:15;;;;;;;11.57;10.27;;;8.40;76.30;;;;;;5031733;28;20040;-68
2024/01/20 11:48:42;;;;;;;12.98;10.80;;;8.40;76.30;;;;;;5015660;28;20042;-68
2024/01/20 11:51:08;;;;;;;15.80;9.60;;;8.40;76.30;;;;;;5030903;28;20520;-68
2024/01/20 11:53:34;;;;;;;13.55;8.63;;;8.40;76.30;;;;;;5014997;28;20056;-68
2024/01/20 11:56:00;;;;;;;12.40;9.65;;;8.40;76.30;;;;;;4998688;28;20037;-68
2024/01/20 11:58:26;;;;;;;11.32;9.43;;;8.40;76.40;;;;;;5021556;28;20047;-68
2024/01/20 12:00:52;;;;;;;12.85;9.30;;;8.40;76.40;;;;;;5026264;28;20222;-68
2024/01/20 12:03:21;;;;;;;13.95;8.60;;;8.40;76.40;;;;;;4998390;28;20045;-68
2024/01/20 12:05:47;;;;;;;12.60;11.23;;;8.40;76.40;;;;;;5015315;28;20080;-68
2024/01/20 12:08:13;;;;;;;12.15;9.38;;;8.40;76.50;;;;;;5014850;28;20532;-68
2024/01/20 12:10:41;;;;;;;12.32;8.88;;;8.40;76.40;;;;;;4998301;28;20451;-68
2024/01/20 12:13:06;;;;;;;11.77;8.48;;;8.40;76.40;;;;;;4999612;28;20535;-68
2024/01/20 12:15:35;;;;;;;13.40;9.35;;;8.40;76.50;;;;;;5032462;28;20433;-68
2024/01/20 12:18:00;;;;;;;11.93;10.48;;;8.40;76.50;;;;;;5031363;28;20125;-68
2024/01/20 12:20:26;;;;;;;14.43;11.70;;;8.40;76.50;;;;;;5051039;28;20037;-68
2024/01/20 12:22:56;;;;;;;11.85;10.65;;;8.40;76.50;;;;;;5013480;28;20041;-68
2024/01/20 12:25:21;;;;;;;12.23;10.88;;;8.40;76.50;;;;;;5014595;28;20045;-68
2024/01/20 12:27:49;;;;;;;12.02;9.25;;;8.40;76.50;;;;;;5008816;28;20068;-68
2024/01/20 12:30:15;;;;;;;12.43;9.05;;;8.40;76.50;;;;;;4980225;28;20056;-68
2024/01/20 12:32:41;;;;;;;14.30;9.55;;;8.40;76.50;;;;;;4996442;28;20038;-68
2024/01/20 12:35:07;;;;;;;12.27;10.32;;;8.40;76.50;;;;;;5028287;28;20138;-68
2024/01/20 12:37:32;;;;;;;11.57;10.25;;;8.40;76.60;;;;;;5013568;28;20550;-68